MMMZ/MZT METAR and TAF weather

Enter ICAO airport designator
Station Type Date Time Source
MMMZ METAR 2019/06/18 16:46 UTC NOAA

MMMZ 181646Z 16009KT 15SM FEW070 SCT100 32/16 A2993 RMK 8/070 ISOL CI


Station Type Date Time Source
MMMZ Decoded METAR 2019/06/18 16:46 UTC NOAA

Mazatlan / G. Buelna, Mexico (MMMZ) 23-10N 106-16W
Jun 18, 2019 - 12:46 PM EDT / 2019.06.18 1646 UTC
Wind: from the SSE (160 degrees) at 10 MPH (9 KT):0
Visibility: 15 mile(s):0
Sky conditions: partly cloudy
Temperature: 89 F (32 C)
Dew Point: 60 F (16 C)
Relative Humidity: 38%
Pressure (altimeter): 29.93 in. Hg (1013 hPa)
ob: MMMZ 181646Z 16009KT 15SM FEW070 SCT100 32/16 A2993 RMK 8/070 ISOL CI
cycle: 17

Station Type Date Time Source
MMMZ TAF 2019/06/18 18:08 UTC NOAA

TAF MMMZ 181705Z 1818/1924 25010KT P6SM SCT030 BKN100 TX33/1819Z TN21/1912Z
FM190400 28005KT P6SM SCT030 BKN090
FM191800 16008KT P6SM SCT100 BKN260

Example: see airport list